Time;durP1;ratioP1;P1;durP2;ratioP2;P2;SDS_P1;SDS_P2;PMS_P1;PMS_P2;Temp;Humidity;BMP_temperature;BMP_pressure;BME280_temperature;BME280_humidity;BME280_pressure;Samples;Min_cycle;Max_cycle;Signal;HPM_P1;HPM_P2
2021/06/11 00:00:15;;;;;;;9.82;8.82;;;17.30;99.90;;;;;;5073789;28;20107;-85
2021/06/11 00:02:43;;;;;;;11.35;9.77;;;17.30;99.90;;;;;;5073320;28;20108;-85
2021/06/11 00:05:40;;;;;;;11.32;9.13;;;17.30;99.90;;;;;;5056754;28;20035;-85
2021/06/11 00:08:14;;;;;;;11.00;9.52;;;17.40;99.90;;;;;;5073296;28;20101;-85
2021/06/11 00:11:28;;;;;;;11.50;10.30;;;17.40;99.90;;;;;;5073164;28;20053;-85
2021/06/11 00:14:03;;;;;;;12.40;10.55;;;17.40;99.90;;;;;;5073212;28;20036;-85
2021/06/11 00:16:43;;;;;;;;;;;;;;;;;;;;;
2021/06/11 00:19:11;;;;;;;13.13;11.30;;;17.40;99.90;;;;;;5073660;28;20477;-84
2021/06/11 00:21:48;;;;;;;10.75;9.65;;;17.30;99.90;;;;;;5089949;28;20039;-84
2021/06/11 00:24:27;;;;;;;;;;;;;;;;;;;;;
2021/06/11 00:27:06;;;;;;;10.82;9.73;;;17.40;99.90;;;;;;5073674;28;20021;-85
2021/06/11 00:29:52;;;;;;;10.70;9.65;;;17.40;99.90;;;;;;5073201;28;20032;-84
2021/06/11 00:32:22;;;;;;;10.15;9.13;;;17.40;99.90;;;;;;5072955;28;20028;-85
2021/06/11 00:34:53;;;;;;;;;;;17.40;99.90;;;;;;5074804;28;20108;-85
2021/06/11 00:37:23;;;;;;;9.88;8.65;;;17.40;99.90;;;;;;5073983;28;19912;-85
2021/06/11 00:40:13;;;;;;;11.18;9.88;;;17.40;99.90;;;;;;5072801;28;20055;-84
2021/06/11 00:42:43;;;;;;;11.32;10.13;;;17.40;99.90;;;;;;5058872;28;20024;-84
2021/06/11 00:45:25;;;;;;;12.43;11.13;;;17.40;99.90;;;;;;5073186;28;20056;-84
2021/06/11 00:47:59;;;;;;;12.65;11.32;;;17.40;99.90;;;;;;5072690;28;20021;-84
2021/06/11 00:50:37;;;;;;;11.38;10.27;;;17.40;99.90;;;;;;5073870;28;20025;-84
2021/06/11 00:53:16;;;;;;;9.30;8.40;;;17.40;99.90;;;;;;5073120;28;20124;-84
2021/06/11 00:55:55;;;;;;;10.68;9.68;;;17.40;99.90;;;;;;5089451;28;20032;-84
2021/06/11 00:58:27;;;;;;;11.48;10.18;;;17.40;99.90;;;;;;5073909;28;20081;-84
2021/06/11 01:01:02;;;;;;;12.25;10.30;;;17.40;99.90;;;;;;5072195;28;20054;-85
2021/06/11 01:03:35;;;;;;;12.50;11.27;;;17.40;99.90;;;;;;5072521;28;20024;-85
2021/06/11 01:06:02;;;;;;;11.93;10.73;;;17.40;99.90;;;;;;5071449;28;20035;-84
2021/06/11 01:08:35;;;;;;;13.07;11.70;;;17.40;99.90;;;;;;5072460;28;20028;-84
2021/06/11 01:11:22;;;;;;;10.68;9.68;;;17.40;99.90;;;;;;5072023;28;20036;-84
2021/06/11 01:13:58;;;;;;;13.48;11.38;;;17.40;99.90;;;;;;5089295;28;20035;-84
2021/06/11 01:16:24;;;;;;;11.70;10.50;;;17.40;99.90;;;;;;5072188;28;20029;-84
2021/06/11 01:18:50;;;;;;;12.05;10.85;;;17.40;99.90;;;;;;5073573;28;20023;-84
2021/06/11 01:21:48;;;;;;;12.18;10.90;;;17.40;99.90;;;;;;5073722;28;20028;-84
2021/06/11 01:24:18;;;;;;;15.98;11.75;;;17.40;99.90;;;;;;5072473;28;20603;-84
2021/06/11 01:26:50;;;;;;;13.32;11.55;;;17.40;99.90;;;;;;5073375;28;20031;-84
2021/06/11 01:29:25;;;;;;;11.95;10.50;;;17.30;99.90;;;;;;5072353;28;20024;-84
2021/06/11 01:32:06;;;;;;;13.20;11.07;;;17.30;99.90;;;;;;5088727;28;20047;-84
2021/06/11 01:34:37;;;;;;;13.27;11.15;;;17.40;99.90;;;;;;5073472;28;20035;-84
2021/06/11 01:37:15;;;;;;;16.42;12.52;;;17.40;99.90;;;;;;5071967;28;20075;-84
2021/06/11 01:39:49;;;;;;;15.07;13.07;;;17.30;99.90;;;;;;5072087;28;20420;-84
2021/06/11 01:42:25;;;;;;;;;;;;;;;;;;;;;
2021/06/11 01:45:05;;;;;;;;;;;;;;;;;;;;;
2021/06/11 01:47:41;;;;;;;;;;;;;;;;;;;;;
2021/06/11 01:50:10;;;;;;;13.48;12.18;;;17.20;99.90;;;;;;5073550;28;20051;-84
2021/06/11 01:52:37;;;;;;;14.23;12.75;;;17.20;99.90;;;;;;5072473;28;20045;-83
2021/06/11 01:55:04;;;;;;;14.68;12.43;;;17.20;99.90;;;;;;5071859;28;20037;-83
2021/06/11 01:57:40;;;;;;;12.60;11.27;;;17.20;99.90;;;;;;5055372;28;20056;-84
2021/06/11 02:00:10;;;;;;;12.98;11.43;;;17.20;99.90;;;;;;5072016;28;20025;-83
2021/06/11 02:02:42;;;;;;;14.40;12.73;;;17.20;99.90;;;;;;5055245;28;20038;-83
2021/06/11 02:05:12;;;;;;;12.35;10.63;;;17.20;99.90;;;;;;5072157;28;20020;-83
2021/06/11 02:07:45;;;;;;;12.85;11.30;;;17.20;99.90;;;;;;5071862;28;20033;-83
2021/06/11 02:10:22;;;;;;;;;;;;;;;;;;;;;
2021/06/11 02:12:52;;;;;;;12.27;10.98;;;17.30;99.90;;;;;;5072574;28;20025;-83
2021/06/11 02:15:30;;;;;;;13.27;11.70;;;17.30;99.90;;;;;;5072946;28;20024;-83
2021/06/11 02:18:00;;;;;;;13.32;11.13;;;17.30;99.90;;;;;;5074594;28;20028;-83
2021/06/11 02:20:29;;;;;;;12.43;11.20;;;17.20;99.90;;;;;;5075243;28;20413;-83
2021/06/11 02:23:06;;;;;;;13.70;12.10;;;17.30;99.90;;;;;;5092680;28;20029;-83
2021/06/11 02:25:42;;;;;;;16.38;12.23;;;17.20;99.90;;;;;;5076516;28;20051;-83
2021/06/11 02:28:08;;;;;;;;;;;17.20;99.90;;;;;;5076835;28;20029;-83
2021/06/11 02:30:33;;;;;;;15.18;12.00;;;17.20;99.90;;;;;;5075198;28;19904;-83
2021/06/11 02:32:59;;;;;;;17.35;13.27;;;17.30;99.90;;;;;;5075391;28;20029;-83
2021/06/11 02:35:28;;;;;;;11.68;10.48;;;17.20;99.90;;;;;;5076355;28;20025;-83
2021/06/11 02:38:09;;;;;;;15.15;12.13;;;17.30;99.90;;;;;;5059777;28;20485;-83
2021/06/11 02:40:43;;;;;;;12.55;11.07;;;17.30;99.90;;;;;;5075038;28;20024;-83
2021/06/11 02:43:20;;;;;;;13.63;11.98;;;17.30;99.90;;;;;;5075081;28;20056;-83
2021/06/11 02:46:10;;;;;;;14.13;12.68;;;17.30;99.90;;;;;;5076287;28;20033;-83
2021/06/11 02:48:54;;;;;;;11.65;10.45;;;17.30;99.90;;;;;;5076109;28;20054;-82
2021/06/11 02:51:30;;;;;;;16.40;12.50;;;17.40;99.90;;;;;;5083680;28;20024;-82
2021/06/11 02:53:57;;;;;;;13.32;11.93;;;17.40;99.90;;;;;;5096333;28;20032;-82
2021/06/11 02:56:40;;;;;;;14.00;12.60;;;17.40;99.90;;;;;;5096195;28;20024;-82
2021/06/11 02:59:21;;;;;;;13.05;11.35;;;17.40;99.90;;;;;;5096218;28;20032;-82
2021/06/11 03:02:03;;;;;;;15.63;14.13;;;17.50;99.90;;;;;;5078221;28;20025;-82
2021/06/11 03:04:30;;;;;;;17.25;15.40;;;17.50;99.90;;;;;;5079795;28;20024;-82
2021/06/11 03:07:00;;;;;;;19.63;16.15;;;17.40;99.90;;;;;;5094936;28;20029;-82
2021/06/11 03:09:27;;;;;;;14.25;12.75;;;17.40;99.90;;;;;;5094657;28;20073;-82
2021/06/11 03:12:15;;;;;;;17.90;15.65;;;17.40;99.90;;;;;;5094667;28;20035;-82
2021/06/11 03:14:51;;;;;;;17.83;14.52;;;17.50;99.90;;;;;;5094728;28;20026;-82
2021/06/11 03:17:27;;;;;;;19.20;14.43;;;17.40;99.90;;;;;;5094715;28;20028;-82
2021/06/11 03:20:05;;;;;;;16.83;14.90;;;17.40;99.90;;;;;;5095051;28;20058;-82
2021/06/11 03:22:49;;;;;;;17.75;15.85;;;17.50;99.90;;;;;;5076072;28;20417;-82
2021/06/11 03:25:31;;;;;;;19.25;15.93;;;17.40;99.90;;;;;;5075491;28;20459;-83
2021/06/11 03:28:29;;;;;;;18.17;15.07;;;17.50;99.90;;;;;;5074163;28;20040;-82
2021/06/11 03:31:04;;;;;;;17.85;15.95;;;17.50;99.90;;;;;;5074759;28;20029;-83
2021/06/11 03:33:36;;;;;;;16.83;14.32;;;17.50;99.90;;;;;;5074050;28;20033;-83
2021/06/11 03:36:41;;;;;;;17.30;14.43;;;17.60;99.90;;;;;;5074431;28;20045;-83
2021/06/11 03:39:37;;;;;;;18.65;15.30;;;17.60;99.90;;;;;;5074520;28;20120;-83
2021/06/11 03:42:21;;;;;;;18.60;16.65;;;17.50;99.90;;;;;;5059283;28;20466;-83
2021/06/11 03:44:57;;;;;;;15.90;14.20;;;17.50;99.90;;;;;;5090716;28;20475;-83
2021/06/11 03:47:30;;;;;;;15.82;14.23;;;17.50;99.90;;;;;;5073437;28;20375;-83
2021/06/11 03:50:02;;;;;;;18.70;16.27;;;17.60;99.90;;;;;;5075000;28;20374;-83
2021/06/11 03:53:08;;;;;;;14.60;13.05;;;17.50;99.90;;;;;;5074849;28;20520;-83
2021/06/11 03:55:43;;;;;;;18.80;15.48;;;17.60;99.90;;;;;;5073966;28;20119;-83
2021/06/11 03:58:33;;;;;;;20.10;15.45;;;17.60;99.90;;;;;;5074707;28;20024;-83
2021/06/11 04:01:15;;;;;;;20.20;16.00;;;17.50;99.90;;;;;;5073501;28;20016;-83
2021/06/11 04:03:41;;;;;;;15.50;13.90;;;17.50;99.90;;;;;;5056856;28;20035;-83
2021/06/11 04:09:17;;;;;;;15.30;13.55;;;17.50;99.90;;;;;;5074814;28;20036;-84
2021/06/11 04:11:49;;;;;;;22.88;19.58;;;17.50;99.90;;;;;;5073361;28;20024;-84
2021/06/11 04:14:24;;;;;;;16.73;14.57;;;17.40;99.90;;;;;;5074677;28;20033;-83
2021/06/11 04:17:08;;;;;;;;;;;;;;;;;;;;;
2021/06/11 04:19:56;;;;;;;16.85;15.05;;;17.40;99.90;;;;;;5094216;28;20021;-82
2021/06/11 04:22:32;;;;;;;15.48;13.80;;;17.50;99.90;;;;;;5094567;28;20050;-83
2021/06/11 04:25:02;;;;;;;14.82;12.82;;;17.50;99.90;;;;;;5110346;28;20385;-82
2021/06/11 04:27:36;;;;;;;;;;;17.50;99.90;;;;;;5094095;28;20036;-83
2021/06/11 04:30:05;;;;;;;14.00;12.60;;;17.50;99.90;;;;;;5093213;28;19908;-82
2021/06/11 04:32:47;;;;;;;;;;;;;;;;;;;;;
2021/06/11 04:35:24;;;;;;;16.92;15.23;;;17.60;99.90;;;;;;5094644;28;20028;-81
2021/06/11 04:38:01;;;;;;;13.07;11.75;;;17.70;99.90;;;;;;5092977;28;20032;-81
2021/06/11 04:40:42;;;;;;;12.77;11.18;;;17.70;99.90;;;;;;5092847;28;20030;-80
2021/06/11 04:43:07;;;;;;;;;;;17.80;99.90;;;;;;5094680;28;20462;-80
2021/06/11 04:45:34;;;;;;;16.40;13.35;;;17.70;99.90;;;;;;5082125;28;19911;-83
2021/06/11 04:48:10;;;;;;;17.95;15.90;;;17.70;99.90;;;;;;5073951;28;20020;-85
2021/06/11 04:50:36;;;;;;;18.15;15.95;;;17.60;99.90;;;;;;5072708;28;20420;-84
2021/06/11 04:53:07;;;;;;;18.23;14.63;;;17.50;99.90;;;;;;5074142;28;20089;-83
2021/06/11 04:55:33;;;;;;;22.90;16.60;;;17.60;99.90;;;;;;5073705;28;20025;-82
2021/06/11 04:58:07;;;;;;;17.08;14.95;;;17.60;99.90;;;;;;5073760;28;20032;-82
2021/06/11 05:00:32;;;;;;;23.52;18.38;;;17.60;99.90;;;;;;5072634;28;20032;-82
2021/06/11 05:03:11;;;;;;;;;;;;;;;;;;;;;
2021/06/11 05:05:44;;;;;;;27.27;19.00;;;17.40;99.90;;;;;;5074034;28;20017;-81
2021/06/11 05:08:12;;;;;;;68.80;33.45;;;17.40;99.90;;;;;;5074007;28;20099;-82
2021/06/11 05:10:40;;;;;;;26.95;20.10;;;17.30;99.90;;;;;;5072842;28;20025;-83
2021/06/11 05:13:08;;;;;;;27.17;20.90;;;17.30;99.90;;;;;;5073778;28;20023;-81
2021/06/11 05:15:38;;;;;;;21.38;17.92;;;17.20;99.90;;;;;;5072332;28;20052;-81
2021/06/11 05:18:05;;;;;;;;;;;17.30;99.90;;;;;;5072724;28;20021;-81
2021/06/11 05:20:34;;;;;;;32.78;23.70;;;17.30;99.90;;;;;;5074042;28;19954;-85
2021/06/11 05:23:01;;;;;;;33.38;23.27;;;17.10;99.90;;;;;;5073543;28;20078;-86
2021/06/11 05:25:28;;;;;;;34.47;23.23;;;17.10;99.90;;;;;;5073806;28;20096;-87
2021/06/11 05:27:56;;;;;;;31.77;23.30;;;17.10;99.90;;;;;;5056403;28;20028;-87
2021/06/11 05:30:23;;;;;;;32.63;24.40;;;17.10;99.90;;;;;;5073066;28;20063;-87
2021/06/11 05:33:01;;;;;;;29.10;22.13;;;17.10;99.90;;;;;;5056339;28;20123;-92
2021/06/11 05:35:29;;;;;;;31.95;22.50;;;17.10;99.90;;;;;;5073707;28;20025;-93
2021/06/11 05:38:01;;;;;;;33.20;23.60;;;17.20;99.90;;;;;;5072386;28;20044;-92
2021/06/11 05:40:29;;;;;;;30.20;21.15;;;17.20;99.90;;;;;;5072545;28;20025;-91
2021/06/11 05:42:58;;;;;;;34.05;22.38;;;17.20;99.90;;;;;;5089813;28;20039;-89
2021/06/11 05:45:25;;;;;;;38.88;23.23;;;17.20;99.90;;;;;;5093957;28;20016;-87
2021/06/11 05:47:51;;;;;;;38.90;24.58;;;17.20;99.90;;;;;;5093520;28;20099;-86
2021/06/11 05:50:19;;;;;;;47.05;26.85;;;17.10;99.90;;;;;;5092217;28;20094;-85
2021/06/11 05:52:44;;;;;;;46.00;25.48;;;17.10;99.90;;;;;;5095122;28;20458;-84
2021/06/11 05:55:11;;;;;;;34.97;22.92;;;17.00;99.90;;;;;;5095997;28;20054;-84
2021/06/11 05:57:36;;;;;;;34.20;21.83;;;17.00;99.90;;;;;;5096016;28;20032;-84
2021/06/11 06:00:08;;;;;;;27.50;19.05;;;17.10;99.90;;;;;;5096059;28;20504;-84
2021/06/11 06:02:34;;;;;;;27.55;19.00;;;17.30;99.90;;;;;;5095923;28;20024;-84
2021/06/11 06:05:02;;;;;;;25.92;16.73;;;17.40;99.90;;;;;;5097308;28;20021;-84
2021/06/11 06:07:33;;;;;;;23.88;17.42;;;17.40;99.90;;;;;;5078894;28;20024;-84
2021/06/11 06:10:04;;;;;;;29.10;17.80;;;17.50;99.90;;;;;;5076655;28;20027;-84
2021/06/11 06:12:32;;;;;;;27.70;18.60;;;17.40;99.90;;;;;;5076868;28;20020;-84
2021/06/11 06:14:59;;;;;;;31.15;20.77;;;17.50;99.90;;;;;;5076754;28;20474;-85
2021/06/11 06:17:26;;;;;;;28.35;19.85;;;17.60;99.90;;;;;;5076675;28;20523;-85
2021/06/11 06:19:52;;;;;;;21.48;16.50;;;17.70;99.90;;;;;;5076929;28;20033;-86
2021/06/11 06:22:18;;;;;;;25.02;19.33;;;17.70;99.90;;;;;;5108713;28;20821;-85
2021/06/11 06:24:47;;;;;;;23.92;18.27;;;17.60;99.90;;;;;;5095630;28;20039;-85
2021/06/11 06:27:14;;;;;;;24.65;18.88;;;17.70;99.90;;;;;;5085010;28;20029;-86
2021/06/11 06:29:45;;;;;;;21.63;18.23;;;17.70;99.90;;;;;;5075617;28;20037;-87
2021/06/11 06:32:11;;;;;;;19.45;15.98;;;17.70;99.90;;;;;;5075543;28;20029;-86
2021/06/11 06:34:36;;;;;;;15.82;13.82;;;17.70;99.90;;;;;;5075255;28;20036;-88
2021/06/11 06:37:02;;;;;;;15.63;12.57;;;17.70;99.90;;;;;;5076702;28;20040;-87
2021/06/11 06:39:31;;;;;;;15.00;12.27;;;17.50;99.90;;;;;;5075834;28;20478;-87
2021/06/11 06:42:20;;;;;;;16.67;12.93;;;17.60;99.90;;;;;;5075373;28;20032;-86
2021/06/11 06:44:55;;;;;;;15.85;13.15;;;17.60;99.90;;;;;;5076422;28;20021;-86
2021/06/11 06:47:31;;;;;;;14.95;12.98;;;17.70;99.90;;;;;;5075214;28;20039;-87
2021/06/11 06:50:19;;;;;;;;;;;;;;;;;;;;;
2021/06/11 06:53:03;;;;;;;10.93;9.73;;;17.90;99.90;;;;;;5073944;28;20395;-87
2021/06/11 06:55:39;;;;;;;11.27;10.18;;;17.70;99.90;;;;;;5059297;28;20065;-87
2021/06/11 06:58:08;;;;;;;9.48;8.57;;;17.80;99.90;;;;;;5094544;28;20381;-87
2021/06/11 07:00:46;;;;;;;10.48;9.48;;;17.80;99.90;;;;;;5094993;28;20056;-87
2021/06/11 07:03:12;;;;;;;13.63;12.18;;;17.80;99.90;;;;;;5095977;28;20020;-86
2021/06/11 07:05:44;;;;;;;17.17;13.48;;;17.90;99.90;;;;;;5094647;28;20028;-85
2021/06/11 07:08:31;;;;;;;15.88;14.02;;;17.90;99.90;;;;;;5078383;28;20048;-85
2021/06/11 07:11:03;;;;;;;15.25;13.00;;;17.90;99.90;;;;;;5095927;28;20020;-85
2021/06/11 07:13:36;;;;;;;14.88;13.38;;;18.00;99.90;;;;;;5096052;28;20081;-85
2021/06/11 07:16:09;;;;;;;15.05;13.50;;;18.10;99.90;;;;;;5094507;28;20047;-84
2021/06/11 07:18:42;;;;;;;14.70;13.25;;;18.20;99.90;;;;;;5093153;28;20047;-85
2021/06/11 07:21:15;;;;;;;14.40;12.98;;;18.20;99.90;;;;;;5094584;28;20153;-84
2021/06/11 07:23:44;;;;;;;13.32;12.02;;;18.20;99.90;;;;;;5094549;28;20020;-85
2021/06/11 07:26:19;;;;;;;14.05;12.55;;;18.30;99.90;;;;;;5088916;28;20071;-85
2021/06/11 07:28:46;;;;;;;12.57;11.27;;;18.40;99.90;;;;;;5074216;28;20355;-84
2021/06/11 07:31:35;;;;;;;12.98;11.70;;;18.40;99.90;;;;;;5074202;28;20494;-85
2021/06/11 07:34:08;;;;;;;15.50;13.10;;;18.50;99.90;;;;;;5075248;28;20783;-87
2021/06/11 07:36:33;;;;;;;14.32;12.95;;;18.60;99.90;;;;;;5090628;28;20387;-86
2021/06/11 07:39:00;;;;;;;14.98;13.48;;;18.60;99.90;;;;;;5075623;28;20358;-87
2021/06/11 07:41:49;;;;;;;14.77;13.27;;;18.60;99.90;;;;;;5090841;28;20112;-87
2021/06/11 07:44:23;;;;;;;14.00;12.48;;;18.50;99.90;;;;;;5075790;28;20365;-88
2021/06/11 07:46:48;;;;;;;13.15;11.82;;;18.60;99.90;;;;;;5058275;28;20037;-89
2021/06/11 07:49:20;;;;;;;12.93;11.63;;;18.50;99.90;;;;;;5074151;28;20031;-84
2021/06/11 07:51:49;;;;;;;12.73;11.43;;;18.50;99.90;;;;;;5073924;28;20050;-82
2021/06/11 07:54:14;;;;;;;11.73;10.57;;;18.50;99.90;;;;;;5074604;28;20111;-85
2021/06/11 07:56:44;;;;;;;10.35;9.30;;;18.70;99.90;;;;;;5100036;28;20104;-87
2021/06/11 07:59:10;;;;;;;11.70;8.32;;;18.90;99.90;;;;;;5093865;28;20020;-88
2021/06/11 08:01:36;;;;;;;10.25;9.25;;;18.90;99.90;;;;;;5095272;28;20103;-87
2021/06/11 08:04:02;;;;;;;8.50;7.75;;;19.10;99.90;;;;;;5093761;28;20051;-87
2021/06/11 08:06:28;;;;;;;9.27;8.43;;;19.20;99.90;;;;;;5094414;28;20439;-89
2021/06/11 08:08:54;;;;;;;9.07;7.63;;;19.30;99.90;;;;;;5094614;28;20488;-90
2021/06/11 08:11:20;;;;;;;7.82;7.18;;;19.50;99.90;;;;;;5094751;28;20028;-88
2021/06/11 08:13:54;;;;;;;8.13;7.33;;;19.50;99.90;;;;;;5094506;28;20035;-89
2021/06/11 08:16:22;;;;;;;7.70;7.00;;;19.50;99.90;;;;;;5093575;28;20024;-87
2021/06/11 08:18:52;;;;;;;7.13;6.43;;;19.70;99.90;;;;;;5095363;28;20031;-88
2021/06/11 08:21:20;;;;;;;6.65;6.05;;;19.60;99.90;;;;;;5077817;28;20061;-88
2021/06/11 08:23:46;;;;;;;7.07;6.47;;;19.50;99.90;;;;;;5095157;28;20025;-88
2021/06/11 08:26:12;;;;;;;5.07;4.57;;;19.60;99.90;;;;;;5085420;28;20032;-87
2021/06/11 08:28:43;;;;;;;4.85;4.47;;;19.80;99.90;;;;;;5074184;28;20108;-88
2021/06/11 08:31:09;;;;;;;4.78;4.38;;;19.80;99.90;;;;;;5075067;28;20050;-89
2021/06/11 08:33:35;;;;;;;3.90;3.60;;;19.90;99.90;;;;;;5073717;28;20032;-89
2021/06/11 08:36:00;;;;;;;3.50;3.20;;;19.80;99.90;;;;;;5073600;28;20094;-89
2021/06/11 08:38:26;;;;;;;2.97;2.78;;;20.00;99.90;;;;;;5074545;28;20031;-88
2021/06/11 08:40:53;;;;;;;2.10;2.00;;;19.80;99.90;;;;;;5073242;28;20071;-87
2021/06/11 08:43:25;;;;;;;2.47;2.30;;;19.60;99.90;;;;;;5073216;28;20017;-86
2021/06/11 08:46:03;;;;;;;2.40;2.20;;;19.40;99.90;;;;;;5074619;28;20021;-90
2021/06/11 08:48:33;;;;;;;2.17;1.90;;;19.20;99.90;;;;;;5057927;28;20508;-88
2021/06/11 08:51:01;;;;;;;;;;;19.10;99.90;;;;;;5075178;28;20052;-89
2021/06/11 08:53:32;;;;;;;2.38;2.17;;;19.10;99.90;;;;;;5073279;28;19904;-86
2021/06/11 08:55:58;;;;;;;1.90;1.80;;;19.10;99.90;;;;;;5072826;28;20397;-88
2021/06/11 08:58:54;;;;;;;;;;;;;;;;;;;;;
2021/06/11 09:01:31;;;;;;;2.30;2.08;;;19.00;99.90;;;;;;5074687;28;20033;-89
2021/06/11 09:04:15;;;;;;;2.83;2.40;;;18.90;99.90;;;;;;5074401;28;20071;-88
2021/06/11 09:06:40;;;;;;;2.40;2.20;;;19.00;99.90;;;;;;5058885;28;20036;-90
2021/06/11 09:09:08;;;;;;;1.80;1.70;;;19.20;99.90;;;;;;5073052;28;20496;-89
2021/06/11 09:11:49;;;;;;;2.08;1.98;;;19.40;99.90;;;;;;5074410;28;20056;-88
2021/06/11 09:14:19;;;;;;;2.60;2.40;;;19.80;99.90;;;;;;5072702;28;20024;-88
2021/06/11 09:16:48;;;;;;;4.20;3.63;;;19.80;99.90;;;;;;5072715;28;20029;-87
2021/06/11 09:19:23;;;;;;;2.63;2.50;;;19.80;99.90;;;;;;5072533;28;20379;-85
2021/06/11 09:21:58;;;;;;;2.70;2.50;;;19.70;99.90;;;;;;5056995;28;20033;-87
2021/06/11 09:24:44;;;;;;;2.55;2.40;;;19.70;99.90;;;;;;5074043;28;20096;-87
2021/06/11 09:27:19;;;;;;;2.70;2.50;;;19.60;99.90;;;;;;5072986;28;20028;-85
2021/06/11 09:29:51;;;;;;;3.58;3.08;;;19.90;99.90;;;;;;5076297;28;20066;-86
2021/06/11 09:32:58;;;;;;;4.10;2.92;;;20.10;99.90;;;;;;5077959;28;20040;-86
2021/06/11 09:35:31;;;;;;;3.25;3.00;;;20.20;99.90;;;;;;5077347;28;20032;-84
2021/06/11 09:38:27;;;;;;;3.58;3.38;;;20.30;99.90;;;;;;5077539;28;20068;-87
2021/06/11 09:40:59;;;;;;;3.95;3.58;;;20.60;99.90;;;;;;5088452;28;20037;-86
2021/06/11 09:43:30;;;;;;;10.38;9.25;;;20.60;99.80;;;;;;5076114;28;20029;-84
2021/06/11 09:46:07;;;;;;;5.00;4.60;;;20.50;99.70;;;;;;5059171;28;20024;-83
2021/06/11 09:48:51;;;;;;;5.18;4.68;;;20.80;99.90;;;;;;5075850;28;20059;-83
2021/06/11 09:51:23;;;;;;;4.65;4.25;;;21.10;99.90;;;;;;5076014;28;20478;-81
2021/06/11 09:53:54;;;;;;;5.18;4.78;;;21.10;99.90;;;;;;5077058;28;20067;-85
2021/06/11 09:56:28;;;;;;;6.70;4.40;;;21.00;99.80;;;;;;5076960;28;20032;-83
2021/06/11 09:59:36;;;;;;;4.10;3.80;;;21.00;99.90;;;;;;5077132;28;20031;-81
2021/06/11 10:02:19;;;;;;;4.30;3.97;;;21.10;99.70;;;;;;5076850;28;20016;-82
2021/06/11 10:04:45;;;;;;;4.47;4.07;;;21.20;99.40;;;;;;5075731;28;20474;-82
2021/06/11 10:07:23;;;;;;;4.20;3.72;;;21.20;99.90;;;;;;5059120;28;20029;-81
2021/06/11 10:09:50;;;;;;;4.47;4.07;;;21.10;99.50;;;;;;5075732;28;20054;-82
2021/06/11 10:12:15;;;;;;;5.95;4.20;;;21.00;99.90;;;;;;5076684;28;20099;-80
2021/06/11 10:14:50;;;;;;;4.18;3.80;;;21.10;99.80;;;;;;5075565;28;20029;-81
2021/06/11 10:17:21;;;;;;;3.28;3.00;;;21.10;99.20;;;;;;5075353;28;20070;-82
2021/06/11 10:20:08;;;;;;;3.10;2.90;;;21.00;99.30;;;;;;5075540;28;20021;-84
2021/06/11 10:22:48;;;;;;;3.22;3.00;;;21.00;99.30;;;;;;5076709;28;20066;-83
2021/06/11 10:25:16;;;;;;;3.00;2.80;;;20.90;98.90;;;;;;5075576;28;20032;-84
2021/06/11 10:27:45;;;;;;;2.80;2.60;;;20.80;99.10;;;;;;5075424;28;20037;-83
2021/06/11 10:30:14;;;;;;;2.70;2.50;;;20.80;98.50;;;;;;5058892;28;20062;-85
2021/06/11 10:32:59;;;;;;;2.03;1.92;;;21.20;98.70;;;;;;5076814;28;20040;-83
2021/06/11 10:35:46;;;;;;;2.33;2.20;;;21.20;97.80;;;;;;5076445;28;20059;-85
2021/06/11 10:38:37;;;;;;;2.50;2.30;;;21.30;96.50;;;;;;5074348;28;20040;-83
2021/06/11 10:41:06;;;;;;;2.13;2.03;;;21.20;96.60;;;;;;5076278;28;20078;-84
2021/06/11 10:43:38;;;;;;;2.50;2.40;;;21.10;96.60;;;;;;5076169;28;20025;-84
2021/06/11 10:46:30;;;;;;;2.65;2.40;;;21.10;97.40;;;;;;5074994;28;20032;-83
2021/06/11 10:49:06;;;;;;;2.55;2.35;;;21.10;97.50;;;;;;5074958;28;20025;-84
2021/06/11 10:51:52;;;;;;;2.45;2.35;;;20.90;97.90;;;;;;5074919;28;20500;-84
2021/06/11 10:54:30;;;;;;;2.25;2.15;;;20.70;97.60;;;;;;5074890;28;20029;-86
2021/06/11 10:57:30;;;;;;;2.92;2.42;;;20.60;97.90;;;;;;5075960;28;20127;-84
2021/06/11 10:59:57;;;;;;;2.60;2.40;;;20.70;98.30;;;;;;5076045;28;20024;-83
2021/06/11 11:02:50;;;;;;;2.83;2.63;;;20.80;98.10;;;;;;5075789;28;20347;-83
2021/06/11 11:05:42;;;;;;;;;;;;;;;;;;;;;
2021/06/11 11:08:12;;;;;;;2.72;2.53;;;21.30;98.00;;;;;;5075942;28;20013;-84
2021/06/11 11:10:47;;;;;;;;;;;21.40;98.20;;;;;;5076199;28;20027;-84
2021/06/11 11:13:20;;;;;;;2.70;2.50;;;21.30;97.40;;;;;;5074802;28;20057;-84
2021/06/11 11:15:51;;;;;;;3.00;2.80;;;21.20;98.00;;;;;;5076046;28;20024;-83
2021/06/11 11:18:22;;;;;;;4.10;2.53;;;21.30;98.00;;;;;;5074295;28;20552;-85
2021/06/11 11:20:49;;;;;;;2.72;2.53;;;21.10;96.60;;;;;;5074342;28;20492;-84
2021/06/11 11:23:19;;;;;;;3.67;2.70;;;21.10;97.30;;;;;;5074376;28;20024;-83
2021/06/11 11:25:53;;;;;;;2.60;2.40;;;21.00;97.50;;;;;;5075816;28;20032;-86
2021/06/11 11:28:22;;;;;;;3.80;3.50;;;21.10;97.60;;;;;;5082192;28;20036;-84
2021/06/11 11:30:49;;;;;;;4.05;2.80;;;21.00;96.70;;;;;;5094340;28;20366;-84
2021/06/11 11:33:16;;;;;;;3.67;3.20;;;21.00;96.70;;;;;;5095984;28;20043;-84
2021/06/11 11:35:44;;;;;;;2.95;2.42;;;21.00;97.20;;;;;;5077425;28;20028;-82
2021/06/11 11:38:12;;;;;;;2.63;2.42;;;20.90;96.70;;;;;;5093844;28;20036;-85
2021/06/11 11:40:55;;;;;;;2.70;2.50;;;21.00;97.20;;;;;;5094002;28;20032;-84
2021/06/11 11:43:21;;;;;;;4.60;2.63;;;21.20;97.10;;;;;;5094090;28;20030;-84
2021/06/11 11:45:49;;;;;;;3.85;2.80;;;21.30;96.90;;;;;;5086201;28;20033;-86
2021/06/11 11:48:23;;;;;;;3.30;3.00;;;21.50;96.60;;;;;;5075055;28;20410;-84
2021/06/11 11:50:52;;;;;;;5.00;3.10;;;21.60;96.50;;;;;;5073931;28;20028;-82
2021/06/11 11:53:18;;;;;;;2.83;2.60;;;22.20;95.90;;;;;;5073474;28;20031;-86
2021/06/11 11:55:44;;;;;;;4.97;2.75;;;23.20;94.90;;;;;;5073555;28;20020;-84
2021/06/11 11:58:29;;;;;;;3.63;2.40;;;23.80;94.00;;;;;;5075079;28;20401;-87
2021/06/11 12:00:55;;;;;;;2.92;2.47;;;24.70;93.60;;;;;;5073861;28;20539;-86
2021/06/11 12:03:20;;;;;;;2.50;2.30;;;26.00;92.20;;;;;;5074491;28;20111;-85
2021/06/11 12:05:49;;;;;;;2.17;2.08;;;27.10;90.80;;;;;;5073653;28;20382;-86
2021/06/11 12:08:14;;;;;;;2.40;2.20;;;28.40;87.20;;;;;;5056664;28;20028;-85
2021/06/11 12:10:47;;;;;;;2.13;2.00;;;28.30;84.00;;;;;;5073366;28;20104;-85
2021/06/11 12:13:16;;;;;;;2.88;2.30;;;28.50;81.00;;;;;;5073168;28;20027;-88
2021/06/11 12:15:43;;;;;;;2.35;2.15;;;28.70;80.50;;;;;;5073443;28;20024;-86
2021/06/11 12:18:17;;;;;;;3.20;2.20;;;29.00;79.50;;;;;;5073263;28;20024;-87
2021/06/11 12:20:56;;;;;;;2.40;2.20;;;28.70;79.50;;;;;;5057482;28;20063;-85
2021/06/11 12:23:21;;;;;;;2.30;2.10;;;29.70;79.80;;;;;;5073141;28;20017;-87
2021/06/11 12:25:47;;;;;;;1.95;1.85;;;30.20;74.20;;;;;;5078569;28;20016;-87
2021/06/11 12:28:13;;;;;;;2.20;2.10;;;29.80;73.10;;;;;;5094791;28;20435;-85
2021/06/11 12:30:44;;;;;;;2.05;1.95;;;30.00;74.20;;;;;;5093155;28;20020;-86
2021/06/11 12:33:11;;;;;;;4.57;1.85;;;29.90;73.50;;;;;;5094992;28;20025;-85
2021/06/11 12:35:44;;;;;;;2.25;1.70;;;29.90;71.10;;;;;;5093070;28;20020;-86
2021/06/11 12:38:13;;;;;;;3.33;2.17;;;30.50;70.00;;;;;;5094289;28;20043;-85
2021/06/11 12:40:45;;;;;;;1.88;1.77;;;30.20;68.30;;;;;;5076763;28;20043;-85
2021/06/11 12:43:15;;;;;;;2.28;2.13;;;28.80;69.90;;;;;;5093066;28;20020;-86
2021/06/11 12:45:45;;;;;;;2.88;2.67;;;27.50;74.40;;;;;;5083288;28;20107;-85
2021/06/11 12:48:12;;;;;;;3.15;2.85;;;26.30;78.20;;;;;;5072723;28;20048;-86
2021/06/11 12:50:40;;;;;;;2.90;2.60;;;25.20;82.40;;;;;;5072683;28;20475;-87
2021/06/11 12:53:06;;;;;;;3.20;3.00;;;24.70;86.00;;;;;;5072775;28;20093;-85
2021/06/11 12:55:40;;;;;;;3.25;2.65;;;24.30;88.30;;;;;;5056053;28;20826;-85
2021/06/11 12:58:16;;;;;;;5.88;3.40;;;24.60;88.90;;;;;;5056972;28;20032;-87
2021/06/11 13:00:44;;;;;;;3.30;3.05;;;25.10;89.30;;;;;;5056588;28;20504;-86
2021/06/11 13:03:39;;;;;;;3.58;3.10;;;26.00;88.50;;;;;;5072370;28;20028;-86
2021/06/11 13:06:09;;;;;;;3.35;3.03;;;26.90;84.50;;;;;;5073369;28;20123;-87
2021/06/11 13:08:37;;;;;;;5.65;3.08;;;27.40;82.90;;;;;;5072458;28;20020;-87
2021/06/11 13:11:04;;;;;;;3.25;3.05;;;27.70;82.00;;;;;;5072500;28;20020;-86
2021/06/11 13:13:34;;;;;;;3.22;3.00;;;27.40;81.10;;;;;;5072123;28;20027;-85
2021/06/11 13:16:07;;;;;;;3.28;3.03;;;27.30;82.00;;;;;;5072075;28;20024;-86
2021/06/11 13:18:33;;;;;;;2.58;2.47;;;27.10;81.60;;;;;;5073492;28;20035;-86
2021/06/11 13:20:58;;;;;;;2.70;2.50;;;27.10;81.10;;;;;;5072109;28;20115;-87
2021/06/11 13:23:24;;;;;;;2.60;2.40;;;27.00;79.00;;;;;;5072154;28;20021;-86
2021/06/11 13:25:52;;;;;;;7.95;3.78;;;26.60;79.80;;;;;;5073632;28;20028;-87
2021/06/11 13:28:18;;;;;;;2.95;2.75;;;26.70;80.40;;;;;;5073359;28;20021;-85